createdAt,value
2023-02-18T00:00:45.675Z,1010.35
2023-02-18T00:01:45.676Z,1010.33
2023-02-18T00:02:45.770Z,1010.34
2023-02-18T00:03:45.705Z,1010.33
2023-02-18T00:04:45.656Z,1010.27
2023-02-18T00:05:45.649Z,1010.35
2023-02-18T00:06:45.647Z,1010.29
2023-02-18T00:07:45.640Z,1010.30
2023-02-18T00:08:45.651Z,1010.35
2023-02-18T00:09:45.639Z,1010.37
2023-02-18T00:10:45.630Z,1010.29
2023-02-18T00:11:45.638Z,1010.39
2023-02-18T00:12:45.624Z,1010.36
2023-02-18T00:13:45.638Z,1010.36
2023-02-18T00:14:45.620Z,1010.36
2023-02-18T00:15:45.713Z,1010.36
2023-02-18T00:16:45.611Z,1010.29
2023-02-18T00:17:45.607Z,1010.45
2023-02-18T00:18:45.632Z,1010.41
2023-02-18T00:19:45.607Z,1010.28
2023-02-18T00:20:45.600Z,1010.38
2023-02-18T00:21:45.599Z,1010.35
2023-02-18T00:22:45.594Z,1010.34
2023-02-18T00:23:45.582Z,1010.37
2023-02-18T00:24:45.587Z,1010.43
2023-02-18T00:25:45.581Z,1010.41
2023-02-18T00:26:45.578Z,1010.44
2023-02-18T00:27:45.574Z,1010.47
2023-02-18T00:28:45.573Z,1010.46
2023-02-18T00:29:45.572Z,1010.50
2023-02-18T00:30:45.608Z,1010.42
2023-02-18T00:31:45.744Z,1010.52
2023-02-18T00:32:45.571Z,1010.61
2023-02-18T00:33:45.555Z,1010.52
2023-02-18T00:34:45.578Z,1010.54
2023-02-18T00:35:45.558Z,1010.46
2023-02-18T00:36:45.554Z,1010.49
2023-02-18T00:37:45.541Z,1010.53
2023-02-18T00:38:45.541Z,1010.43
2023-02-18T00:39:45.540Z,1010.42
2023-02-18T00:40:45.537Z,1010.54
2023-02-18T00:41:45.528Z,1010.53
2023-02-18T00:42:45.532Z,1010.43
2023-02-18T00:43:45.525Z,1010.48
2023-02-18T00:44:45.527Z,1010.55
2023-02-18T00:45:45.517Z,1010.53
2023-02-18T00:46:45.540Z,1010.53
2023-02-18T00:47:45.510Z,1010.61
2023-02-18T00:48:45.505Z,1010.59
2023-02-18T00:49:45.501Z,1010.72
2023-02-18T00:50:45.521Z,1010.57
2023-02-18T00:51:45.498Z,1010.63
2023-02-18T00:52:45.498Z,1010.61
2023-02-18T00:53:45.488Z,1010.49
2023-02-18T00:54:45.488Z,1010.44
2023-02-18T00:55:45.481Z,1010.56
2023-02-18T00:56:45.488Z,1010.51
2023-02-18T00:57:45.476Z,1010.57
2023-02-18T00:58:45.487Z,1010.61
2023-02-18T00:59:45.470Z,1010.58
2023-02-18T01:00:45.470Z,1010.68
2023-02-18T01:01:45.558Z,1010.58
2023-02-18T01:02:45.465Z,1010.64
2023-02-18T01:03:45.459Z,1010.66
2023-02-18T01:04:45.507Z,1010.63
2023-02-18T01:05:45.451Z,1010.61
2023-02-18T01:06:45.469Z,1010.70
2023-02-18T01:07:45.450Z,1010.67
2023-02-18T01:08:45.447Z,1010.65
2023-02-18T01:09:45.441Z,1010.62
2023-02-18T01:10:45.439Z,1010.61
2023-02-18T01:11:45.530Z,1010.53
2023-02-18T01:12:45.433Z,1010.61
2023-02-18T01:13:45.427Z,1010.55
2023-02-18T01:14:45.432Z,1010.61
2023-02-18T01:15:45.504Z,1010.42
2023-02-18T01:16:45.432Z,1010.46
2023-02-18T01:17:45.431Z,1010.47
2023-02-18T01:18:45.427Z,1010.49
2023-02-18T01:19:45.422Z,1010.40
2023-02-18T01:20:45.480Z,1010.51
2023-02-18T01:21:45.422Z,1010.50
2023-02-18T01:22:45.429Z,1010.52
2023-02-18T01:23:45.391Z,1010.46
2023-02-18T01:24:46.433Z,1010.47
2023-02-18T01:25:45.385Z,1010.48
2023-02-18T01:26:45.422Z,1010.47
2023-02-18T01:27:45.421Z,1010.45
2023-02-18T01:28:45.435Z,1010.57
2023-02-18T01:29:45.379Z,1010.50
2023-02-18T01:30:45.426Z,1010.52
2023-02-18T01:31:45.666Z,1010.49
2023-02-18T01:32:45.372Z,1010.58
2023-02-18T01:33:45.380Z,1010.60
2023-02-18T01:34:45.366Z,1010.54
2023-02-18T01:35:45.361Z,1010.59
2023-02-18T01:36:45.391Z,1010.55
2023-02-18T01:37:45.369Z,1010.50
2023-02-18T01:38:45.410Z,1010.54
2023-02-18T01:39:45.365Z,1010.54
2023-02-18T01:40:45.370Z,1010.57
2023-02-18T01:41:45.355Z,1010.52
2023-02-18T01:42:45.326Z,1010.37
2023-02-18T01:43:45.356Z,1010.54
2023-02-18T01:44:45.355Z,1010.39
2023-02-18T01:45:45.332Z,1010.58
2023-02-18T01:46:45.320Z,1010.46
2023-02-18T01:47:45.310Z,1010.50
2023-02-18T01:48:45.308Z,1010.50
2023-02-18T01:49:45.296Z,1010.52
2023-02-18T01:50:45.297Z,1010.55
2023-02-18T01:51:45.300Z,1010.46
2023-02-18T01:52:45.290Z,1010.45
2023-02-18T01:53:45.291Z,1010.49
2023-02-18T01:54:45.299Z,1010.40
2023-02-18T01:55:45.287Z,1010.44
2023-02-18T01:56:45.282Z,1010.53
2023-02-18T01:57:45.271Z,1010.58
2023-02-18T01:58:45.273Z,1010.49
2023-02-18T01:59:45.264Z,1010.48
2023-02-18T02:00:45.292Z,1010.50
2023-02-18T02:01:45.272Z,1010.64
2023-02-18T02:02:45.248Z,1010.48
2023-02-18T02:03:45.250Z,1010.35
2023-02-18T02:04:45.250Z,1010.46
2023-02-18T02:05:45.236Z,1010.54
2023-02-18T02:06:45.237Z,1010.46
2023-02-18T02:07:45.238Z,1010.58
2023-02-18T02:08:45.230Z,1010.45
2023-02-18T02:09:45.223Z,1010.50
2023-02-18T02:10:45.247Z,1010.47
2023-02-18T02:11:45.222Z,1010.53
2023-02-18T02:12:45.223Z,1010.49
2023-02-18T02:13:45.209Z,1010.48
2023-02-18T02:14:45.219Z,1010.46
2023-02-18T02:15:45.211Z,1010.58
2023-02-18T02:16:45.208Z,1010.59
2023-02-18T02:17:45.197Z,1010.54
2023-02-18T02:18:45.198Z,1010.54
2023-02-18T02:19:45.189Z,1010.52
2023-02-18T02:20:45.190Z,1010.57
2023-02-18T02:21:45.182Z,1010.60
2023-02-18T02:22:45.181Z,1010.54
2023-02-18T02:23:45.172Z,1010.62
2023-02-18T02:24:45.168Z,1010.60
2023-02-18T02:25:45.166Z,1010.53
2023-02-18T02:26:45.190Z,1010.45
2023-02-18T02:27:45.157Z,1010.59
2023-02-18T02:28:45.161Z,1010.56
2023-02-18T02:29:45.156Z,1010.51
2023-02-18T02:30:45.174Z,1010.55
2023-02-18T02:31:45.193Z,1010.61
2023-02-18T02:32:45.143Z,1010.60
2023-02-18T02:33:45.138Z,1010.66
2023-02-18T02:34:45.139Z,1010.65
2023-02-18T02:35:45.136Z,1010.71
2023-02-18T02:36:45.122Z,1010.65
2023-02-18T02:37:45.128Z,1010.71
2023-02-18T02:38:45.120Z,1010.67
2023-02-18T02:39:45.118Z,1010.66
2023-02-18T02:40:45.111Z,1010.71
2023-02-18T02:41:45.112Z,1010.71
2023-02-18T02:42:45.126Z,1010.67
2023-02-18T02:43:45.109Z,1010.71
2023-02-18T02:44:45.097Z,1010.69
2023-02-18T02:45:45.172Z,1010.71
2023-02-18T02:46:45.090Z,1010.75
2023-02-18T02:47:45.094Z,1010.73
2023-02-18T02:48:45.083Z,1010.78
2023-02-18T02:49:45.083Z,1010.74
2023-02-18T02:50:45.077Z,1010.72
2023-02-18T02:51:45.076Z,1010.73
2023-02-18T02:52:45.075Z,1010.68
2023-02-18T02:53:45.071Z,1010.70
2023-02-18T02:54:45.092Z,1010.77
2023-02-18T02:55:45.076Z,1010.78
2023-02-18T02:56:45.059Z,1010.70
2023-02-18T02:57:45.085Z,1010.76
2023-02-18T02:58:45.072Z,1010.77
2023-02-18T02:59:45.051Z,1010.78
2023-02-18T03:00:45.073Z,1010.65
2023-02-18T03:01:45.042Z,1010.70
2023-02-18T03:02:45.179Z,1010.75
2023-02-18T03:03:45.036Z,1010.71
2023-02-18T03:04:45.027Z,1010.75
2023-02-18T03:05:45.025Z,1010.78
2023-02-18T03:06:45.017Z,1010.80
2023-02-18T03:07:45.023Z,1010.80
2023-02-18T03:08:45.012Z,1010.78
2023-02-18T03:09:45.010Z,1010.87
2023-02-18T03:10:45.008Z,1010.82
2023-02-18T03:11:45.014Z,1010.81
2023-02-18T03:12:44.998Z,1010.77
2023-02-18T03:13:44.998Z,1010.83
2023-02-18T03:14:45.014Z,1010.79
2023-02-18T03:15:44.989Z,1010.82
2023-02-18T03:16:45.004Z,1010.88
2023-02-18T03:17:44.983Z,1010.86
2023-02-18T03:18:44.975Z,1010.73
2023-02-18T03:19:44.977Z,1010.74
2023-02-18T03:20:44.969Z,1010.73
2023-02-18T03:21:44.963Z,1010.81
2023-02-18T03:22:44.972Z,1010.71
2023-02-18T03:23:44.960Z,1010.77
2023-02-18T03:24:44.951Z,1010.75
2023-02-18T03:25:44.955Z,1010.76
2023-02-18T03:26:44.945Z,1010.75
2023-02-18T03:27:44.957Z,1010.76
2023-02-18T03:28:44.942Z,1010.69
2023-02-18T03:29:44.936Z,1010.75
2023-02-18T03:30:44.953Z,1010.78
2023-02-18T03:31:45.074Z,1010.73
2023-02-18T03:32:44.924Z,1010.85
2023-02-18T03:33:44.926Z,1010.78
2023-02-18T03:34:44.917Z,1010.75
2023-02-18T03:35:44.918Z,1010.81
2023-02-18T03:36:44.909Z,1010.83
2023-02-18T03:37:44.908Z,1010.75
2023-02-18T03:38:44.899Z,1010.74
2023-02-18T03:39:44.900Z,1010.73
2023-02-18T03:40:44.898Z,1010.72
2023-02-18T03:41:44.896Z,1010.77
2023-02-18T03:42:44.890Z,1010.77
2023-02-18T03:43:44.893Z,1010.75
2023-02-18T03:44:44.883Z,1010.74
2023-02-18T03:45:44.928Z,1010.82
2023-02-18T03:46:44.902Z,1010.79
2023-02-18T03:47:44.872Z,1010.74
2023-02-18T03:48:44.869Z,1010.77
2023-02-18T03:49:44.875Z,1010.92
2023-02-18T03:50:44.858Z,1010.86
2023-02-18T03:51:44.854Z,1010.85
2023-02-18T03:52:44.851Z,1010.84
2023-02-18T03:53:44.850Z,1010.83
2023-02-18T03:54:44.840Z,1010.82
2023-02-18T03:55:44.840Z,1010.77
2023-02-18T03:56:44.838Z,1010.79
2023-02-18T03:57:44.829Z,1010.81
2023-02-18T03:58:44.826Z,1010.76
2023-02-18T03:59:44.823Z,1010.75
2023-02-18T04:00:44.821Z,1010.75
2023-02-18T04:01:44.830Z,1010.83
2023-02-18T04:02:44.830Z,1010.81
2023-02-18T04:03:44.820Z,1010.88
2023-02-18T04:04:44.805Z,1010.89
2023-02-18T04:05:44.812Z,1010.91
2023-02-18T04:06:44.796Z,1010.87
2023-02-18T04:07:44.796Z,1010.92
2023-02-18T04:08:44.787Z,1010.84
2023-02-18T04:09:44.786Z,1010.91
2023-02-18T04:10:44.775Z,1010.87
2023-02-18T04:11:44.775Z,1010.81
2023-02-18T04:12:44.769Z,1010.86
2023-02-18T04:13:44.767Z,1010.87
2023-02-18T04:14:44.779Z,1010.85
2023-02-18T04:15:44.765Z,1010.85
2023-02-18T04:16:44.802Z,1010.86
2023-02-18T04:17:44.758Z,1010.89
2023-02-18T04:18:44.794Z,1010.82
2023-02-18T04:19:44.747Z,1010.91
2023-02-18T04:20:44.748Z,1010.86
2023-02-18T04:21:44.740Z,1010.87
2023-02-18T04:22:44.734Z,1010.88
2023-02-18T04:23:44.729Z,1010.90
2023-02-18T04:24:44.724Z,1010.98
2023-02-18T04:25:44.722Z,1010.98
2023-02-18T04:26:44.713Z,1010.92
2023-02-18T04:27:44.712Z,1010.93
2023-02-18T04:28:44.706Z,1010.94
2023-02-18T04:29:44.710Z,1010.99
2023-02-18T04:30:44.858Z,1010.91
2023-02-18T04:31:44.799Z,1010.98
2023-02-18T04:32:44.694Z,1010.99
2023-02-18T04:33:44.690Z,1010.97
2023-02-18T04:34:44.717Z,1010.94
2023-02-18T04:35:44.684Z,1011.10
2023-02-18T04:36:44.679Z,1011.05
2023-02-18T04:37:44.679Z,1011.11
2023-02-18T04:38:44.676Z,1011.07
2023-02-18T04:39:44.680Z,1011.05
2023-02-18T04:40:44.669Z,1011.04
2023-02-18T04:41:44.667Z,1011.08
2023-02-18T04:42:44.655Z,1011.06
2023-02-18T04:43:44.653Z,1011.03
2023-02-18T04:44:47.005Z,1011.15
2023-02-18T04:45:44.748Z,1011.06
2023-02-18T04:46:44.650Z,1011.10
2023-02-18T04:47:44.641Z,1011.12
2023-02-18T04:48:44.638Z,1011.11
2023-02-18T04:49:44.630Z,1011.08
2023-02-18T04:50:44.645Z,1011.09
2023-02-18T04:51:44.629Z,1011.08
2023-02-18T04:52:44.615Z,1011.10
2023-02-18T04:53:44.613Z,1011.15
2023-02-18T04:54:44.614Z,1011.05
2023-02-18T04:55:44.614Z,1011.11
2023-02-18T04:56:44.608Z,1011.09
2023-02-18T04:57:44.603Z,1011.15
2023-02-18T04:58:44.592Z,1011.10
2023-02-18T04:59:44.599Z,1011.15
2023-02-18T05:00:44.587Z,1011.17
2023-02-18T05:01:44.586Z,1011.16
2023-02-18T05:02:44.580Z,1011.11
2023-02-18T05:03:44.619Z,1011.20
2023-02-18T05:04:44.583Z,1011.14
2023-02-18T05:05:44.576Z,1011.18
2023-02-18T05:06:44.692Z,1011.14
2023-02-18T05:07:44.567Z,1011.18
2023-02-18T05:08:44.559Z,1011.18
2023-02-18T05:09:44.558Z,1011.12
2023-02-18T05:10:44.553Z,1011.08
2023-02-18T05:11:44.551Z,1011.12
2023-02-18T05:12:44.555Z,1011.16
2023-02-18T05:13:44.546Z,1011.13
2023-02-18T05:14:44.539Z,1011.08
2023-02-18T05:15:44.618Z,1011.11
2023-02-18T05:16:44.551Z,1011.13
2023-02-18T05:17:44.537Z,1011.07
2023-02-18T05:18:44.526Z,1011.00
2023-02-18T05:19:44.531Z,1011.00
2023-02-18T05:20:44.526Z,1010.95
2023-02-18T05:21:44.514Z,1011.00
2023-02-18T05:22:44.533Z,1011.04
2023-02-18T05:23:44.514Z,1011.06
2023-02-18T05:24:44.549Z,1011.02
2023-02-18T05:25:44.502Z,1011.05
2023-02-18T05:26:44.495Z,1011.02
2023-02-18T05:27:44.499Z,1011.01
2023-02-18T05:28:44.488Z,1011.06
2023-02-18T05:29:44.487Z,1011.01
2023-02-18T05:30:44.536Z,1011.06
2023-02-18T05:31:44.626Z,1011.00
2023-02-18T05:32:44.489Z,1011.02
2023-02-18T05:33:44.491Z,1010.98
2023-02-18T05:34:44.467Z,1010.94
2023-02-18T05:35:44.479Z,1010.92
2023-02-18T05:36:44.462Z,1010.92
2023-02-18T05:37:44.456Z,1010.98
2023-02-18T05:38:44.475Z,1010.91
2023-02-18T05:39:44.449Z,1010.90
2023-02-18T05:40:44.449Z,1010.87
2023-02-18T05:41:44.440Z,1010.82
2023-02-18T05:42:44.432Z,1010.87
2023-02-18T05:43:44.435Z,1010.91
2023-02-18T05:44:44.428Z,1010.86
2023-02-18T05:45:44.434Z,1010.90
2023-02-18T05:46:44.490Z,1010.87
2023-02-18T05:47:44.424Z,1010.86
2023-02-18T05:48:44.419Z,1010.86
2023-02-18T05:49:44.416Z,1010.82
2023-02-18T05:50:44.433Z,1010.80
2023-02-18T05:51:44.419Z,1010.83
2023-02-18T05:52:44.404Z,1010.85
2023-02-18T05:53:44.398Z,1010.92
2023-02-18T05:54:44.416Z,1010.86
2023-02-18T05:55:44.395Z,1010.83
2023-02-18T05:56:44.387Z,1010.83
2023-02-18T05:57:44.383Z,1010.81
2023-02-18T05:58:44.383Z,1010.75
2023-02-18T05:59:44.380Z,1010.77
2023-02-18T06:00:44.367Z,1010.80
2023-02-18T06:01:44.373Z,1010.86
2023-02-18T06:02:44.419Z,1010.80
2023-02-18T06:03:44.363Z,1010.82
2023-02-18T06:04:44.354Z,1010.85
2023-02-18T06:05:44.364Z,1010.84
2023-02-18T06:06:44.351Z,1010.87
2023-02-18T06:07:44.364Z,1010.91
2023-02-18T06:08:44.338Z,1010.86
2023-02-18T06:09:44.343Z,1010.89
2023-02-18T06:10:44.351Z,1010.88
2023-02-18T06:11:44.333Z,1010.85
2023-02-18T06:12:44.335Z,1010.88
2023-02-18T06:13:44.327Z,1010.84
2023-02-18T06:14:44.316Z,1010.91
2023-02-18T06:15:44.403Z,1010.88
2023-02-18T06:16:44.315Z,1010.85
2023-02-18T06:17:44.327Z,1010.93
2023-02-18T06:18:44.304Z,1010.96
2023-02-18T06:19:44.304Z,1010.95
2023-02-18T06:20:44.298Z,1010.92
2023-02-18T06:21:44.294Z,1010.91
2023-02-18T06:22:44.285Z,1010.92
2023-02-18T06:23:44.286Z,1010.86
2023-02-18T06:24:44.285Z,1010.84
2023-02-18T06:25:44.279Z,1010.85
2023-02-18T06:26:44.355Z,1010.86
2023-02-18T06:27:44.276Z,1010.87
2023-02-18T06:28:44.268Z,1010.83
2023-02-18T06:29:44.266Z,1010.83
2023-02-18T06:30:44.259Z,1010.84
2023-02-18T06:31:44.402Z,1010.88
2023-02-18T06:32:44.256Z,1010.86
2023-02-18T06:33:44.251Z,1010.89
2023-02-18T06:34:44.245Z,1010.90
2023-02-18T06:35:44.246Z,1010.94
2023-02-18T06:36:44.241Z,1010.94
2023-02-18T06:37:44.241Z,1010.94
2023-02-18T06:38:44.247Z,1010.96
2023-02-18T06:39:44.226Z,1010.93
2023-02-18T06:40:44.221Z,1010.91
2023-02-18T06:41:44.225Z,1010.87
2023-02-18T06:42:44.239Z,1010.83
2023-02-18T06:43:44.216Z,1010.81
2023-02-18T06:44:44.210Z,1010.77
2023-02-18T06:45:44.205Z,1010.79
2023-02-18T06:46:44.338Z,1010.77
2023-02-18T06:47:44.198Z,1010.81
2023-02-18T06:48:44.189Z,1010.77
2023-02-18T06:49:44.198Z,1010.78
2023-02-18T06:50:44.194Z,1010.81
2023-02-18T06:51:44.191Z,1010.71
2023-02-18T06:52:44.184Z,1010.72
2023-02-18T06:53:44.176Z,1010.74
2023-02-18T06:54:44.179Z,1010.71
2023-02-18T06:55:44.172Z,1010.67
2023-02-18T06:56:44.169Z,1010.69
2023-02-18T06:57:44.164Z,1010.67
2023-02-18T06:58:44.180Z,1010.68
2023-02-18T06:59:44.156Z,1010.69
2023-02-18T07:00:44.167Z,1010.68
2023-02-18T07:01:44.147Z,1010.65
2023-02-18T07:02:44.148Z,1010.69
2023-02-18T07:03:44.174Z,1010.78
2023-02-18T07:04:44.145Z,1010.74
2023-02-18T07:05:44.140Z,1010.72
2023-02-18T07:06:44.134Z,1010.71
2023-02-18T07:07:44.140Z,1010.70
2023-02-18T07:08:44.127Z,1010.73
2023-02-18T07:09:44.127Z,1010.69
2023-02-18T07:10:44.118Z,1010.72
2023-02-18T07:11:44.111Z,1010.72
2023-02-18T07:12:44.109Z,1010.68
2023-02-18T07:13:44.106Z,1010.68
2023-02-18T07:14:44.131Z,1010.67
2023-02-18T07:15:44.100Z,1010.62
2023-02-18T07:16:44.163Z,1010.60
2023-02-18T07:17:44.092Z,1010.63
2023-02-18T07:18:44.098Z,1010.63
2023-02-18T07:19:44.085Z,1010.64
2023-02-18T07:20:44.083Z,1010.58
2023-02-18T07:21:44.086Z,1010.56
2023-02-18T07:22:44.080Z,1010.67
2023-02-18T07:23:44.073Z,1010.64
2023-02-18T07:24:44.076Z,1010.65
2023-02-18T07:25:44.068Z,1010.60
2023-02-18T07:26:44.066Z,1010.61
2023-02-18T07:27:44.060Z,1010.64
2023-02-18T07:28:44.063Z,1010.54
2023-02-18T07:29:44.062Z,1010.54
2023-02-18T07:30:44.089Z,1010.54
2023-02-18T07:31:44.223Z,1010.50
2023-02-18T07:32:44.057Z,1010.49
2023-02-18T07:33:44.041Z,1010.43
2023-02-18T07:34:44.045Z,1010.44
2023-02-18T07:35:44.039Z,1010.43
2023-02-18T07:36:44.040Z,1010.57
2023-02-18T07:37:44.029Z,1010.51
2023-02-18T07:38:44.034Z,1010.51
2023-02-18T07:39:44.026Z,1010.52
2023-02-18T07:40:44.023Z,1010.51
2023-02-18T07:41:44.022Z,1010.55
2023-02-18T07:42:44.035Z,1010.49
2023-02-18T07:43:44.013Z,1010.52
2023-02-18T07:44:44.011Z,1010.46
2023-02-18T07:45:44.053Z,1010.56
2023-02-18T07:46:44.233Z,1010.51
2023-02-18T07:47:44.000Z,1010.51
2023-02-18T07:48:44.013Z,1010.50
2023-02-18T07:49:43.992Z,1010.50
2023-02-18T07:50:44.001Z,1010.44
2023-02-18T07:51:43.990Z,1010.41
2023-02-18T07:52:43.983Z,1010.41
2023-02-18T07:53:43.978Z,1010.42
2023-02-18T07:54:43.979Z,1010.46
2023-02-18T07:55:43.972Z,1010.48
2023-02-18T07:56:43.976Z,1010.42
2023-02-18T07:57:43.966Z,1010.43
2023-02-18T07:58:43.969Z,1010.44
2023-02-18T07:59:43.961Z,1010.45
2023-02-18T08:00:43.970Z,1010.41
2023-02-18T08:01:45.059Z,1010.43
2023-02-18T08:02:43.980Z,1010.45
2023-02-18T08:03:43.962Z,1010.45
2023-02-18T08:04:43.958Z,1010.46
2023-02-18T08:05:43.947Z,1010.41
2023-02-18T08:06:43.941Z,1010.45
2023-02-18T08:07:43.954Z,1010.42
2023-02-18T08:08:43.942Z,1010.40
2023-02-18T08:09:43.935Z,1010.36
2023-02-18T08:10:43.942Z,1010.38
2023-02-18T08:11:43.974Z,1010.46
2023-02-18T08:12:43.928Z,1010.42
2023-02-18T08:13:46.169Z,1010.37
2023-02-18T08:14:43.925Z,1010.40
2023-02-18T08:15:43.915Z,1010.35
2023-02-18T08:16:44.002Z,1010.27
2023-02-18T08:17:43.913Z,1010.23
2023-02-18T08:18:43.936Z,1010.16
2023-02-18T08:19:43.910Z,1010.17
2023-02-18T08:20:43.913Z,1010.15
2023-02-18T08:21:43.904Z,1010.18
2023-02-18T08:22:43.908Z,1010.13
2023-02-18T08:23:43.911Z,1010.14
2023-02-18T08:24:43.900Z,1010.07
2023-02-18T08:25:43.896Z,1010.07
2023-02-18T08:26:59.114Z,1010.05
2023-02-18T08:27:43.890Z,1010.05
2023-02-18T08:28:43.895Z,1010.02
2023-02-18T08:29:43.881Z,1010.03
2023-02-18T08:30:44.071Z,1009.98
2023-02-18T08:31:44.931Z,1010.01
2023-02-18T08:32:43.873Z,1009.98
2023-02-18T08:33:43.866Z,1009.96
2023-02-18T08:34:43.890Z,1009.95
2023-02-18T08:35:43.865Z,1009.94
2023-02-18T08:36:43.861Z,1009.97
2023-02-18T08:37:53.012Z,1009.94
2023-02-18T08:38:43.873Z,1009.94
2023-02-18T08:39:43.854Z,1009.94
2023-02-18T08:40:43.874Z,1009.96
2023-02-18T08:41:43.851Z,1009.91
2023-02-18T08:42:43.862Z,1009.86
2023-02-18T08:43:43.846Z,1009.84
2023-02-18T08:44:43.863Z,1009.89
2023-02-18T08:45:43.904Z,1009.89
2023-02-18T08:46:43.928Z,1009.83
2023-02-18T08:48:16.351Z,1009.86
2023-02-18T08:48:43.844Z,1009.88
2023-02-18T08:49:43.831Z,1009.89
2023-02-18T08:50:43.855Z,1009.88
2023-02-18T08:51:43.835Z,1009.88
2023-02-18T08:52:43.822Z,1009.90
2023-02-18T08:53:43.831Z,1009.83
2023-02-18T08:54:43.817Z,1009.75
2023-02-18T08:55:43.825Z,1009.77
2023-02-18T08:56:43.834Z,1009.76
2023-02-18T08:57:43.820Z,1009.81
2023-02-18T08:58:43.798Z,1009.77
2023-02-18T08:59:43.794Z,1009.78
2023-02-18T09:00:43.813Z,1009.79
2023-02-18T09:01:43.894Z,1009.78
2023-02-18T09:02:43.799Z,1009.74
2023-02-18T09:03:43.789Z,1009.79
2023-02-18T09:04:43.797Z,1009.75
2023-02-18T09:05:43.782Z,1009.74
2023-02-18T09:06:43.795Z,1009.73
2023-02-18T09:07:43.770Z,1009.72
2023-02-18T09:08:43.809Z,1009.73
2023-02-18T09:09:43.794Z,1009.75
2023-02-18T09:10:46.196Z,1009.69
2023-02-18T09:11:43.786Z,1009.70
2023-02-18T09:12:43.760Z,1009.67
2023-02-18T09:13:43.753Z,1009.67
2023-02-18T09:14:43.760Z,1009.65
2023-02-18T09:15:43.794Z,1009.67
2023-02-18T09:16:43.744Z,1009.67
2023-02-18T09:17:43.749Z,1009.65
2023-02-18T09:18:43.741Z,1009.63
2023-02-18T09:19:43.735Z,1009.63
2023-02-18T09:20:43.736Z,1009.59
2023-02-18T09:21:43.727Z,1009.54
2023-02-18T09:22:43.746Z,1009.56
2023-02-18T09:23:43.733Z,1009.55
2023-02-18T09:24:43.726Z,1009.56
2023-02-18T09:25:43.715Z,1009.49
2023-02-18T09:26:43.710Z,1009.48
2023-02-18T09:27:43.706Z,1009.50
2023-02-18T09:28:43.703Z,1009.47
2023-02-18T09:29:43.727Z,1009.43
2023-02-18T09:30:43.734Z,1009.35
2023-02-18T09:31:43.845Z,1009.35
2023-02-18T09:32:43.698Z,1009.35
2023-02-18T09:33:45.654Z,1009.40
2023-02-18T09:34:43.694Z,1009.42
2023-02-18T09:35:43.679Z,1009.40
2023-02-18T09:36:43.687Z,1009.34
2023-02-18T09:37:43.688Z,1009.31
2023-02-18T09:38:43.692Z,1009.30
2023-02-18T09:39:43.672Z,1009.27
2023-02-18T09:40:43.668Z,1009.28
2023-02-18T09:41:43.667Z,1009.28
2023-02-18T09:42:43.662Z,1009.29
2023-02-18T09:43:43.659Z,1009.28
2023-02-18T09:44:43.669Z,1009.21
2023-02-18T09:45:43.651Z,1009.18
2023-02-18T09:46:43.648Z,1009.17
2023-02-18T09:47:43.719Z,1009.16
2023-02-18T09:48:43.660Z,1009.12
2023-02-18T09:49:43.635Z,1009.11
2023-02-18T09:50:43.642Z,1009.13
2023-02-18T09:51:43.668Z,1009.14
2023-02-18T09:52:43.630Z,1009.07
2023-02-18T09:53:43.633Z,1009.03
2023-02-18T09:54:43.650Z,1008.94
2023-02-18T09:55:43.621Z,1008.92
2023-02-18T09:56:43.629Z,1008.92
2023-02-18T09:57:43.620Z,1008.90
2023-02-18T09:58:43.616Z,1008.91
2023-02-18T09:59:43.625Z,1008.89
2023-02-18T10:00:43.626Z,1008.83
2023-02-18T10:01:43.633Z,1008.78
2023-02-18T10:02:43.605Z,1008.75
2023-02-18T10:03:43.599Z,1008.68
2023-02-18T10:04:43.602Z,1008.65
2023-02-18T10:05:43.595Z,1008.65
2023-02-18T10:06:43.604Z,1008.54
2023-02-18T10:07:43.587Z,1008.50
2023-02-18T10:08:43.586Z,1008.44
2023-02-18T10:09:43.578Z,1008.41
2023-02-18T10:10:43.616Z,1008.48
2023-02-18T10:11:43.573Z,1008.53
2023-02-18T10:12:43.589Z,1008.54
2023-02-18T10:13:43.581Z,1008.53
2023-02-18T10:14:43.566Z,1008.60
2023-02-18T10:15:43.651Z,1008.59
2023-02-18T10:16:43.570Z,1008.54
2023-02-18T10:17:43.573Z,1008.53
2023-02-18T10:18:43.615Z,1008.52
2023-02-18T10:19:43.551Z,1008.57
2023-02-18T10:20:43.553Z,1008.53
2023-02-18T10:21:43.568Z,1008.51
2023-02-18T10:22:43.550Z,1008.45
2023-02-18T10:23:43.539Z,1008.43
2023-02-18T10:24:43.543Z,1008.36
2023-02-18T10:25:43.538Z,1008.30
2023-02-18T10:26:43.564Z,1008.28
2023-02-18T10:27:43.531Z,1008.30
2023-02-18T10:28:43.532Z,1008.22
2023-02-18T10:29:43.517Z,1008.17
2023-02-18T10:30:43.524Z,1008.13
2023-02-18T10:31:43.633Z,1008.07
2023-02-18T10:32:43.530Z,1008.04
2023-02-18T10:33:43.514Z,1008.03
2023-02-18T10:34:43.531Z,1007.89
2023-02-18T10:35:43.516Z,1007.85
2023-02-18T10:36:43.505Z,1007.82
2023-02-18T10:37:43.499Z,1007.76
2023-02-18T10:38:43.504Z,1007.70
2023-02-18T10:39:43.487Z,1007.66
2023-02-18T10:40:43.499Z,1007.64
2023-02-18T10:41:43.506Z,1007.68
2023-02-18T10:42:43.512Z,1007.71
2023-02-18T10:43:43.479Z,1007.65
2023-02-18T10:44:43.488Z,1007.61
2023-02-18T10:45:43.482Z,1007.56
2023-02-18T10:46:43.496Z,1007.48
2023-02-18T10:47:43.473Z,1007.38
2023-02-18T10:48:43.467Z,1007.34
2023-02-18T10:49:43.464Z,1007.23
2023-02-18T10:50:43.468Z,1007.16
2023-02-18T10:51:43.473Z,1007.16
2023-02-18T10:52:43.459Z,1007.15
2023-02-18T10:53:43.458Z,1007.11
2023-02-18T10:54:43.449Z,1007.11
2023-02-18T10:55:43.452Z,1007.05
2023-02-18T10:56:43.497Z,1007.05
2023-02-18T10:57:43.438Z,1007.04
2023-02-18T10:58:43.490Z,1006.96
2023-02-18T10:59:43.427Z,1006.93
2023-02-18T11:00:43.428Z,1006.93
2023-02-18T11:01:43.463Z,1006.94
2023-02-18T11:02:43.421Z,1006.93
2023-02-18T11:03:43.444Z,1006.91
2023-02-18T11:04:43.425Z,1006.93
2023-02-18T11:05:43.430Z,1006.87
2023-02-18T11:06:43.409Z,1006.84
2023-02-18T11:07:43.408Z,1006.81
2023-02-18T11:08:43.404Z,1006.79
2023-02-18T11:09:46.517Z,1006.76
2023-02-18T11:10:43.404Z,1006.68
2023-02-18T11:11:45.711Z,1006.57
2023-02-18T11:12:43.394Z,1006.57
2023-02-18T11:13:43.391Z,1006.55
2023-02-18T11:14:43.406Z,1006.53
2023-02-18T11:15:43.411Z,1006.51
2023-02-18T11:16:43.417Z,1006.43
2023-02-18T11:17:43.397Z,1006.40
2023-02-18T11:18:43.393Z,1006.35
2023-02-18T11:19:43.376Z,1006.36
2023-02-18T11:20:43.376Z,1006.30
2023-02-18T11:21:43.368Z,1006.26
2023-02-18T11:22:43.362Z,1006.25
2023-02-18T11:23:43.358Z,1006.17
2023-02-18T11:24:43.370Z,1006.13
2023-02-18T11:25:43.349Z,1006.14
2023-02-18T11:26:43.353Z,1006.10
2023-02-18T11:27:43.345Z,1006.05
2023-02-18T11:28:43.354Z,1006.06
2023-02-18T11:29:43.343Z,1006.03
2023-02-18T11:30:43.372Z,1006.02
2023-02-18T11:31:43.429Z,1005.91
2023-02-18T11:32:43.327Z,1005.89
2023-02-18T11:33:43.332Z,1005.88
2023-02-18T11:34:43.328Z,1005.83
2023-02-18T11:35:43.322Z,1005.81
2023-02-18T11:36:43.317Z,1005.83
2023-02-18T11:37:43.321Z,1005.76
2023-02-18T11:38:45.410Z,1005.74
2023-02-18T11:39:43.345Z,1005.75
2023-02-18T11:40:43.310Z,1005.67
2023-02-18T11:41:43.302Z,1005.59
2023-02-18T11:42:43.297Z,1005.57
2023-02-18T11:43:43.303Z,1005.67
2023-02-18T11:44:43.299Z,1005.71
2023-02-18T11:45:43.286Z,1005.62
2023-02-18T11:46:43.334Z,1005.55
2023-02-18T11:47:43.287Z,1005.53
2023-02-18T11:48:43.276Z,1005.54
2023-02-18T11:49:43.286Z,1005.64
2023-02-18T11:50:43.278Z,1005.45
2023-02-18T11:51:43.275Z,1005.38
2023-02-18T11:52:43.263Z,1005.33
2023-02-18T11:53:43.266Z,1005.42
2023-02-18T11:54:43.267Z,1005.38
2023-02-18T11:55:43.266Z,1005.28
2023-02-18T11:56:43.299Z,1005.22
2023-02-18T11:57:43.256Z,1005.27
2023-02-18T11:58:43.243Z,1005.20
2023-02-18T11:59:43.256Z,1005.18
2023-02-18T12:00:43.242Z,1005.18
2023-02-18T12:01:43.265Z,1005.19
2023-02-18T12:02:43.267Z,1005.17
2023-02-18T12:03:43.236Z,1005.10
2023-02-18T12:04:43.238Z,1005.11
2023-02-18T12:05:43.249Z,1005.00